sensor_id;sensor_type;location;lat;lon;timestamp;temperature;humidity
22167;DHT22;11249;52.468;13.776;2023-08-31T00:01:01;14.90;99.90
22167;DHT22;11249;52.468;13.776;2023-08-31T00:03:28;14.90;99.90
22167;DHT22;11249;52.468;13.776;2023-08-31T00:05:55;14.90;99.90
22167;DHT22;11249;52.468;13.776;2023-08-31T00:08:23;14.80;99.90
22167;DHT22;11249;52.468;13.776;2023-08-31T00:10:57;14.90;99.90
22167;DHT22;11249;52.468;13.776;2023-08-31T00:13:24;14.80;99.90
22167;DHT22;11249;52.468;13.776;2023-08-31T00:15:53;14.80;99.90
22167;DHT22;11249;52.468;13.776;2023-08-31T00:18:20;14.80;99.90
22167;DHT22;11249;52.468;13.776;2023-08-31T00:20:47;14.80;99.90
22167;DHT22;11249;52.468;13.776;2023-08-31T00:23:14;14.80;99.90
22167;DHT22;11249;52.468;13.776;2023-08-31T00:25:40;14.90;99.90
22167;DHT22;11249;52.468;13.776;2023-08-31T00:28:09;14.90;99.90
22167;DHT22;11249;52.468;13.776;2023-08-31T00:30:36;14.80;99.90
22167;DHT22;11249;52.468;13.776;2023-08-31T00:33:03;14.80;99.90
22167;DHT22;11249;52.468;13.776;2023-08-31T00:35:30;14.80;99.90
22167;DHT22;11249;52.468;13.776;2023-08-31T00:37:59;14.80;99.90
22167;DHT22;11249;52.468;13.776;2023-08-31T00:40:27;14.80;99.90
22167;DHT22;11249;52.468;13.776;2023-08-31T00:42:54;14.80;99.90
22167;DHT22;11249;52.468;13.776;2023-08-31T00:45:21;14.80;99.90
22167;DHT22;11249;52.468;13.776;2023-08-31T00:47:49;14.80;99.90
22167;DHT22;11249;52.468;13.776;2023-08-31T00:50:16;14.80;99.90
22167;DHT22;11249;52.468;13.776;2023-08-31T00:52:43;14.80;99.90
22167;DHT22;11249;52.468;13.776;2023-08-31T00:55:14;14.80;99.90
22167;DHT22;11249;52.468;13.776;2023-08-31T00:57:44;14.80;99.90
22167;DHT22;11249;52.468;13.776;2023-08-31T01:00:12;14.80;99.90
22167;DHT22;11249;52.468;13.776;2023-08-31T01:02:51;14.80;99.90
22167;DHT22;11249;52.468;13.776;2023-08-31T01:05:33;14.80;99.90
22167;DHT22;11249;52.468;13.776;2023-08-31T01:08:30;14.80;99.90
22167;DHT22;11249;52.468;13.776;2023-08-31T01:11:11;14.80;99.90
22167;DHT22;11249;52.468;13.776;2023-08-31T01:13:41;14.80;99.90
22167;DHT22;11249;52.468;13.776;2023-08-31T01:16:12;14.90;99.90
22167;DHT22;11249;52.468;13.776;2023-08-31T01:18:40;14.90;99.90
22167;DHT22;11249;52.468;13.776;2023-08-31T01:21:27;14.80;99.90
22167;DHT22;11249;52.468;13.776;2023-08-31T01:23:57;14.80;99.90
22167;DHT22;11249;52.468;13.776;2023-08-31T01:26:25;14.70;99.90
22167;DHT22;11249;52.468;13.776;2023-08-31T01:28:53;14.70;99.90
22167;DHT22;11249;52.468;13.776;2023-08-31T01:31:21;14.70;99.90
22167;DHT22;11249;52.468;13.776;2023-08-31T01:33:48;14.70;99.90
22167;DHT22;11249;52.468;13.776;2023-08-31T01:36:46;14.70;99.90
22167;DHT22;11249;52.468;13.776;2023-08-31T01:39:27;14.70;99.90
22167;DHT22;11249;52.468;13.776;2023-08-31T01:42:00;14.70;99.90
22167;DHT22;11249;52.468;13.776;2023-08-31T01:44:32;14.70;99.90
22167;DHT22;11249;52.468;13.776;2023-08-31T01:47:04;14.70;99.90
22167;DHT22;11249;52.468;13.776;2023-08-31T01:49:36;14.70;99.90
22167;DHT22;11249;52.468;13.776;2023-08-31T01:52:03;14.60;99.90
22167;DHT22;11249;52.468;13.776;2023-08-31T01:54:30;14.60;99.90
22167;DHT22;11249;52.468;13.776;2023-08-31T01:56:57;14.60;99.90
22167;DHT22;11249;52.468;13.776;2023-08-31T01:59:24;14.50;99.90
22167;DHT22;11249;52.468;13.776;2023-08-31T02:01:50;14.50;99.90
22167;DHT22;11249;52.468;13.776;2023-08-31T02:04:17;14.40;99.90
22167;DHT22;11249;52.468;13.776;2023-08-31T02:06:44;14.40;99.90
22167;DHT22;11249;52.468;13.776;2023-08-31T02:09:11;14.40;99.90
22167;DHT22;11249;52.468;13.776;2023-08-31T02:11:38;14.40;99.90
22167;DHT22;11249;52.468;13.776;2023-08-31T02:14:06;14.40;99.90
22167;DHT22;11249;52.468;13.776;2023-08-31T02:16:34;14.40;99.90
22167;DHT22;11249;52.468;13.776;2023-08-31T02:19:01;14.40;99.90
22167;DHT22;11249;52.468;13.776;2023-08-31T02:21:27;14.40;99.90
22167;DHT22;11249;52.468;13.776;2023-08-31T02:23:54;14.50;99.90
22167;DHT22;11249;52.468;13.776;2023-08-31T02:26:21;14.60;99.90
22167;DHT22;11249;52.468;13.776;2023-08-31T02:28:48;14.60;99.90
22167;DHT22;11249;52.468;13.776;2023-08-31T02:31:17;14.60;99.90
22167;DHT22;11249;52.468;13.776;2023-08-31T02:33:46;14.60;99.90
22167;DHT22;11249;52.468;13.776;2023-08-31T02:36:13;14.60;99.90
22167;DHT22;11249;52.468;13.776;2023-08-31T02:38:40;14.70;99.90
22167;DHT22;11249;52.468;13.776;2023-08-31T02:41:06;14.70;99.90
22167;DHT22;11249;52.468;13.776;2023-08-31T02:43:33;14.80;99.90
22167;DHT22;11249;52.468;13.776;2023-08-31T02:46:03;14.80;99.90
22167;DHT22;11249;52.468;13.776;2023-08-31T02:48:31;14.80;99.90
22167;DHT22;11249;52.468;13.776;2023-08-31T02:50:59;14.80;99.90
22167;DHT22;11249;52.468;13.776;2023-08-31T02:53:30;14.80;99.90
22167;DHT22;11249;52.468;13.776;2023-08-31T02:55:57;14.80;99.90
22167;DHT22;11249;52.468;13.776;2023-08-31T02:58:24;14.80;99.90
22167;DHT22;11249;52.468;13.776;2023-08-31T03:00:51;14.80;99.90
22167;DHT22;11249;52.468;13.776;2023-08-31T03:03:19;14.70;99.90
22167;DHT22;11249;52.468;13.776;2023-08-31T03:05:46;14.70;99.90
22167;DHT22;11249;52.468;13.776;2023-08-31T03:08:13;14.70;99.90
22167;DHT22;11249;52.468;13.776;2023-08-31T03:10:40;14.70;99.90
22167;DHT22;11249;52.468;13.776;2023-08-31T03:13:07;14.70;99.90
22167;DHT22;11249;52.468;13.776;2023-08-31T03:15:34;14.70;99.90
22167;DHT22;11249;52.468;13.776;2023-08-31T03:18:01;14.60;99.90
22167;DHT22;11249;52.468;13.776;2023-08-31T03:20:28;14.60;99.90
22167;DHT22;11249;52.468;13.776;2023-08-31T03:22:55;14.60;99.90
22167;DHT22;11249;52.468;13.776;2023-08-31T03:25:21;14.60;99.90
22167;DHT22;11249;52.468;13.776;2023-08-31T03:27:48;14.50;99.90
22167;DHT22;11249;52.468;13.776;2023-08-31T03:30:15;14.40;99.90
22167;DHT22;11249;52.468;13.776;2023-08-31T03:32:42;14.40;99.90
22167;DHT22;11249;52.468;13.776;2023-08-31T03:35:09;14.40;99.90
22167;DHT22;11249;52.468;13.776;2023-08-31T03:37:36;14.40;99.90
22167;DHT22;11249;52.468;13.776;2023-08-31T03:40:03;14.30;99.90
22167;DHT22;11249;52.468;13.776;2023-08-31T03:42:34;14.30;99.90
22167;DHT22;11249;52.468;13.776;2023-08-31T03:45:01;14.20;99.90
22167;DHT22;11249;52.468;13.776;2023-08-31T03:47:29;14.10;99.90
22167;DHT22;11249;52.468;13.776;2023-08-31T03:49:56;14.10;99.90
22167;DHT22;11249;52.468;13.776;2023-08-31T03:52:23;14.10;99.90
22167;DHT22;11249;52.468;13.776;2023-08-31T03:54:51;14.10;99.90
22167;DHT22;11249;52.468;13.776;2023-08-31T03:57:19;14.00;99.90
22167;DHT22;11249;52.468;13.776;2023-08-31T03:59:46;14.00;99.90
22167;DHT22;11249;52.468;13.776;2023-08-31T04:02:13;14.00;99.90
22167;DHT22;11249;52.468;13.776;2023-08-31T04:04:40;14.00;99.90
22167;DHT22;11249;52.468;13.776;2023-08-31T04:07:07;14.00;99.90
22167;DHT22;11249;52.468;13.776;2023-08-31T04:09:33;14.00;99.90
22167;DHT22;11249;52.468;13.776;2023-08-31T04:12:00;14.00;99.90
22167;DHT22;11249;52.468;13.776;2023-08-31T04:14:27;14.00;99.90
22167;DHT22;11249;52.468;13.776;2023-08-31T04:16:54;13.90;99.90
22167;DHT22;11249;52.468;13.776;2023-08-31T04:19:21;13.90;99.90
22167;DHT22;11249;52.468;13.776;2023-08-31T04:21:48;13.90;99.90
22167;DHT22;11249;52.468;13.776;2023-08-31T04:24:15;13.90;99.90
22167;DHT22;11249;52.468;13.776;2023-08-31T04:26:43;13.90;99.90
22167;DHT22;11249;52.468;13.776;2023-08-31T04:29:11;13.90;99.90
22167;DHT22;11249;52.468;13.776;2023-08-31T04:31:38;14.00;99.90
22167;DHT22;11249;52.468;13.776;2023-08-31T04:34:05;14.00;99.90
22167;DHT22;11249;52.468;13.776;2023-08-31T04:36:33;14.00;99.90
22167;DHT22;11249;52.468;13.776;2023-08-31T04:39:00;14.00;99.90
22167;DHT22;11249;52.468;13.776;2023-08-31T04:41:27;14.00;99.90
22167;DHT22;11249;52.468;13.776;2023-08-31T04:43:54;14.00;99.90
22167;DHT22;11249;52.468;13.776;2023-08-31T04:46:21;14.00;99.90
22167;DHT22;11249;52.468;13.776;2023-08-31T04:48:47;14.00;99.90
22167;DHT22;11249;52.468;13.776;2023-08-31T04:51:47;14.00;99.90
22167;DHT22;11249;52.468;13.776;2023-08-31T04:54:14;14.00;99.90
22167;DHT22;11249;52.468;13.776;2023-08-31T04:56:47;14.00;99.90
22167;DHT22;11249;52.468;13.776;2023-08-31T04:59:14;14.10;99.90
22167;DHT22;11249;52.468;13.776;2023-08-31T05:01:41;14.10;99.90
22167;DHT22;11249;52.468;13.776;2023-08-31T05:04:08;14.10;99.90
22167;DHT22;11249;52.468;13.776;2023-08-31T05:06:35;14.20;99.90
22167;DHT22;11249;52.468;13.776;2023-08-31T05:09:02;14.20;99.90
22167;DHT22;11249;52.468;13.776;2023-08-31T05:11:30;14.20;99.90
22167;DHT22;11249;52.468;13.776;2023-08-31T05:13:56;14.20;99.90
22167;DHT22;11249;52.468;13.776;2023-08-31T05:16:23;14.20;99.90
22167;DHT22;11249;52.468;13.776;2023-08-31T05:18:50;14.20;99.90
22167;DHT22;11249;52.468;13.776;2023-08-31T05:21:16;14.30;99.90
22167;DHT22;11249;52.468;13.776;2023-08-31T05:23:43;14.30;99.90
22167;DHT22;11249;52.468;13.776;2023-08-31T05:26:10;14.30;99.90
22167;DHT22;11249;52.468;13.776;2023-08-31T05:28:37;14.30;99.90
22167;DHT22;11249;52.468;13.776;2023-08-31T05:31:03;14.30;99.90
22167;DHT22;11249;52.468;13.776;2023-08-31T05:33:32;14.40;99.90
22167;DHT22;11249;52.468;13.776;2023-08-31T05:36:01;14.40;99.90
22167;DHT22;11249;52.468;13.776;2023-08-31T05:38:30;14.40;99.90
22167;DHT22;11249;52.468;13.776;2023-08-31T05:41:06;14.50;99.90
22167;DHT22;11249;52.468;13.776;2023-08-31T05:43:35;14.50;99.90
22167;DHT22;11249;52.468;13.776;2023-08-31T05:46:02;14.60;99.90
22167;DHT22;11249;52.468;13.776;2023-08-31T05:48:30;14.60;99.90
22167;DHT22;11249;52.468;13.776;2023-08-31T05:50:57;14.60;99.90
22167;DHT22;11249;52.468;13.776;2023-08-31T05:53:23;14.70;99.90
22167;DHT22;11249;52.468;13.776;2023-08-31T05:55:54;14.80;99.90
22167;DHT22;11249;52.468;13.776;2023-08-31T05:58:20;14.90;99.90
22167;DHT22;11249;52.468;13.776;2023-08-31T06:00:47;14.90;99.90
22167;DHT22;11249;52.468;13.776;2023-08-31T06:03:14;15.00;99.90
22167;DHT22;11249;52.468;13.776;2023-08-31T06:05:41;15.00;99.90
22167;DHT22;11249;52.468;13.776;2023-08-31T06:08:08;14.90;99.90
22167;DHT22;11249;52.468;13.776;2023-08-31T06:10:35;14.90;99.90
22167;DHT22;11249;52.468;13.776;2023-08-31T06:13:01;14.80;99.90
22167;DHT22;11249;52.468;13.776;2023-08-31T06:15:28;14.80;99.90
22167;DHT22;11249;52.468;13.776;2023-08-31T06:17:55;14.70;99.90
22167;DHT22;11249;52.468;13.776;2023-08-31T06:20:23;14.80;99.90
22167;DHT22;11249;52.468;13.776;2023-08-31T06:22:50;14.70;99.90
22167;DHT22;11249;52.468;13.776;2023-08-31T06:25:26;14.70;99.90
22167;DHT22;11249;52.468;13.776;2023-08-31T06:27:55;14.70;99.90
22167;DHT22;11249;52.468;13.776;2023-08-31T06:30:21;14.70;99.90
22167;DHT22;11249;52.468;13.776;2023-08-31T06:32:48;14.80;99.90
22167;DHT22;11249;52.468;13.776;2023-08-31T06:35:17;14.80;99.90
22167;DHT22;11249;52.468;13.776;2023-08-31T06:37:46;14.80;99.90
22167;DHT22;11249;52.468;13.776;2023-08-31T06:40:12;14.80;99.90
22167;DHT22;11249;52.468;13.776;2023-08-31T06:42:39;14.80;99.90
22167;DHT22;11249;52.468;13.776;2023-08-31T06:45:07;14.80;99.90
22167;DHT22;11249;52.468;13.776;2023-08-31T06:47:34;14.80;99.90
22167;DHT22;11249;52.468;13.776;2023-08-31T06:50:01;14.80;99.90
22167;DHT22;11249;52.468;13.776;2023-08-31T06:52:29;14.80;99.90
22167;DHT22;11249;52.468;13.776;2023-08-31T06:54:58;14.80;99.90
22167;DHT22;11249;52.468;13.776;2023-08-31T06:57:26;14.90;99.90
22167;DHT22;11249;52.468;13.776;2023-08-31T06:59:53;14.90;99.90
22167;DHT22;11249;52.468;13.776;2023-08-31T07:02:20;14.90;99.90
22167;DHT22;11249;52.468;13.776;2023-08-31T07:04:49;14.90;99.90
22167;DHT22;11249;52.468;13.776;2023-08-31T07:07:16;14.90;99.90
22167;DHT22;11249;52.468;13.776;2023-08-31T07:09:43;14.90;99.90
22167;DHT22;11249;52.468;13.776;2023-08-31T07:12:10;14.90;99.90
22167;DHT22;11249;52.468;13.776;2023-08-31T07:14:38;14.90;99.90
22167;DHT22;11249;52.468;13.776;2023-08-31T07:17:05;15.00;99.90
22167;DHT22;11249;52.468;13.776;2023-08-31T07:19:34;15.00;99.90
22167;DHT22;11249;52.468;13.776;2023-08-31T07:22:01;15.10;99.90
22167;DHT22;11249;52.468;13.776;2023-08-31T07:24:30;15.20;99.90
22167;DHT22;11249;52.468;13.776;2023-08-31T07:26:57;15.30;99.90
22167;DHT22;11249;52.468;13.776;2023-08-31T07:29:24;15.50;99.90
22167;DHT22;11249;52.468;13.776;2023-08-31T07:31:51;15.70;99.90
22167;DHT22;11249;52.468;13.776;2023-08-31T07:34:18;15.80;99.90
22167;DHT22;11249;52.468;13.776;2023-08-31T07:36:44;15.80;99.90
22167;DHT22;11249;52.468;13.776;2023-08-31T07:39:11;15.70;99.90
22167;DHT22;11249;52.468;13.776;2023-08-31T07:41:38;15.50;99.90
22167;DHT22;11249;52.468;13.776;2023-08-31T07:44:08;15.40;99.90
22167;DHT22;11249;52.468;13.776;2023-08-31T07:46:35;15.40;99.90
22167;DHT22;11249;52.468;13.776;2023-08-31T07:49:02;15.30;99.90
22167;DHT22;11249;52.468;13.776;2023-08-31T07:51:30;15.30;99.90
22167;DHT22;11249;52.468;13.776;2023-08-31T07:53:57;15.20;99.90
22167;DHT22;11249;52.468;13.776;2023-08-31T07:56:24;15.20;99.90
22167;DHT22;11249;52.468;13.776;2023-08-31T07:58:50;15.20;99.90
22167;DHT22;11249;52.468;13.776;2023-08-31T08:01:17;15.20;99.90
22167;DHT22;11249;52.468;13.776;2023-08-31T08:03:44;15.20;99.90
22167;DHT22;11249;52.468;13.776;2023-08-31T08:06:11;15.20;99.90
22167;DHT22;11249;52.468;13.776;2023-08-31T08:08:38;15.20;99.90
22167;DHT22;11249;52.468;13.776;2023-08-31T08:11:04;15.20;99.90
22167;DHT22;11249;52.468;13.776;2023-08-31T08:13:31;15.30;99.90
22167;DHT22;11249;52.468;13.776;2023-08-31T08:15:58;15.30;99.90
22167;DHT22;11249;52.468;13.776;2023-08-31T08:18:24;15.30;99.90
22167;DHT22;11249;52.468;13.776;2023-08-31T08:20:51;15.50;99.90
22167;DHT22;11249;52.468;13.776;2023-08-31T08:23:18;15.50;99.90
22167;DHT22;11249;52.468;13.776;2023-08-31T08:25:45;15.50;99.90
22167;DHT22;11249;52.468;13.776;2023-08-31T08:28:11;15.60;99.90
22167;DHT22;11249;52.468;13.776;2023-08-31T08:30:38;15.60;99.90
22167;DHT22;11249;52.468;13.776;2023-08-31T08:33:05;15.80;99.90
22167;DHT22;11249;52.468;13.776;2023-08-31T08:35:32;15.90;99.90
22167;DHT22;11249;52.468;13.776;2023-08-31T08:37:58;16.00;99.90
22167;DHT22;11249;52.468;13.776;2023-08-31T08:40:26;16.10;99.90
22167;DHT22;11249;52.468;13.776;2023-08-31T08:42:53;16.10;99.90
22167;DHT22;11249;52.468;13.776;2023-08-31T08:45:24;16.30;99.90
22167;DHT22;11249;52.468;13.776;2023-08-31T08:47:52;16.50;99.90
22167;DHT22;11249;52.468;13.776;2023-08-31T08:50:20;16.60;99.90
22167;DHT22;11249;52.468;13.776;2023-08-31T08:52:47;16.60;99.90
22167;DHT22;11249;52.468;13.776;2023-08-31T08:55:15;16.70;99.90
22167;DHT22;11249;52.468;13.776;2023-08-31T08:57:42;16.80;99.90
22167;DHT22;11249;52.468;13.776;2023-08-31T09:00:09;16.80;99.90
22167;DHT22;11249;52.468;13.776;2023-08-31T09:02:37;16.70;99.90
22167;DHT22;11249;52.468;13.776;2023-08-31T09:05:04;16.50;99.90
22167;DHT22;11249;52.468;13.776;2023-08-31T09:07:34;16.40;99.90
22167;DHT22;11249;52.468;13.776;2023-08-31T09:10:02;16.40;99.90
22167;DHT22;11249;52.468;13.776;2023-08-31T09:12:30;16.50;99.90
22167;DHT22;11249;52.468;13.776;2023-08-31T09:14:58;16.60;99.90
22167;DHT22;11249;52.468;13.776;2023-08-31T09:17:26;16.80;99.90
22167;DHT22;11249;52.468;13.776;2023-08-31T09:19:59;16.80;99.90
22167;DHT22;11249;52.468;13.776;2023-08-31T09:22:52;16.90;99.90
22167;DHT22;11249;52.468;13.776;2023-08-31T09:25:22;17.10;99.90
22167;DHT22;11249;52.468;13.776;2023-08-31T09:27:49;17.20;99.90
22167;DHT22;11249;52.468;13.776;2023-08-31T09:30:15;17.30;99.90
22167;DHT22;11249;52.468;13.776;2023-08-31T09:32:42;17.40;99.90
22167;DHT22;11249;52.468;13.776;2023-08-31T09:35:11;17.50;99.90
22167;DHT22;11249;52.468;13.776;2023-08-31T09:37:55;17.60;99.90
22167;DHT22;11249;52.468;13.776;2023-08-31T09:40:26;17.80;99.90
22167;DHT22;11249;52.468;13.776;2023-08-31T09:42:52;17.80;99.90
22167;DHT22;11249;52.468;13.776;2023-08-31T09:45:29;17.80;99.90
22167;DHT22;11249;52.468;13.776;2023-08-31T09:48:10;17.70;99.90
22167;DHT22;11249;52.468;13.776;2023-08-31T09:50:38;17.60;99.90
22167;DHT22;11249;52.468;13.776;2023-08-31T09:53:05;17.60;99.90
22167;DHT22;11249;52.468;13.776;2023-08-31T09:55:33;17.40;99.90
22167;DHT22;11249;52.468;13.776;2023-08-31T09:58:02;17.40;99.90
22167;DHT22;11249;52.468;13.776;2023-08-31T10:00:42;17.10;99.90
22167;DHT22;11249;52.468;13.776;2023-08-31T10:03:11;17.10;99.90
22167;DHT22;11249;52.468;13.776;2023-08-31T10:05:47;17.10;99.90
22167;DHT22;11249;52.468;13.776;2023-08-31T10:08:15;16.90;99.90
22167;DHT22;11249;52.468;13.776;2023-08-31T10:10:42;16.90;99.90
22167;DHT22;11249;52.468;13.776;2023-08-31T10:13:09;16.90;99.90
22167;DHT22;11249;52.468;13.776;2023-08-31T10:15:38;16.80;99.90
22167;DHT22;11249;52.468;13.776;2023-08-31T10:18:06;16.80;99.90
22167;DHT22;11249;52.468;13.776;2023-08-31T10:20:34;16.70;99.90
22167;DHT22;11249;52.468;13.776;2023-08-31T10:23:06;16.60;99.90
22167;DHT22;11249;52.468;13.776;2023-08-31T10:28:25;16.60;99.90
22167;DHT22;11249;52.468;13.776;2023-08-31T10:31:06;16.70;99.90
22167;DHT22;11249;52.468;13.776;2023-08-31T10:33:46;16.90;99.90
22167;DHT22;11249;52.468;13.776;2023-08-31T10:36:17;17.10;99.90
22167;DHT22;11249;52.468;13.776;2023-08-31T10:38:47;17.40;99.90
22167;DHT22;11249;52.468;13.776;2023-08-31T10:43:51;17.80;99.90
22167;DHT22;11249;52.468;13.776;2023-08-31T10:46:28;17.70;99.90
22167;DHT22;11249;52.468;13.776;2023-08-31T10:49:00;17.70;99.90
22167;DHT22;11249;52.468;13.776;2023-08-31T10:51:29;17.80;99.90
22167;DHT22;11249;52.468;13.776;2023-08-31T10:54:13;18.10;99.90
22167;DHT22;11249;52.468;13.776;2023-08-31T10:59:19;18.20;1.00
22167;DHT22;11249;52.468;13.776;2023-08-31T11:01:57;18.20;1.00
22167;DHT22;11249;52.468;13.776;2023-08-31T11:04:28;18.10;99.90
22167;DHT22;11249;52.468;13.776;2023-08-31T11:07:14;18.00;1.00
22167;DHT22;11249;52.468;13.776;2023-08-31T11:09:41;17.80;99.90
22167;DHT22;11249;52.468;13.776;2023-08-31T11:12:08;17.50;99.90
22167;DHT22;11249;52.468;13.776;2023-08-31T11:14:35;17.10;99.90
22167;DHT22;11249;52.468;13.776;2023-08-31T11:17:03;16.60;99.90
22167;DHT22;11249;52.468;13.776;2023-08-31T11:19:34;16.30;99.90
22167;DHT22;11249;52.468;13.776;2023-08-31T11:22:02;16.00;99.90
22167;DHT22;11249;52.468;13.776;2023-08-31T11:24:33;15.60;99.90
22167;DHT22;11249;52.468;13.776;2023-08-31T11:27:00;15.30;99.90
22167;DHT22;11249;52.468;13.776;2023-08-31T11:29:30;14.90;99.90
22167;DHT22;11249;52.468;13.776;2023-08-31T11:31:57;14.70;99.90
22167;DHT22;11249;52.468;13.776;2023-08-31T11:34:27;14.60;99.90
22167;DHT22;11249;52.468;13.776;2023-08-31T11:36:54;14.50;99.90
22167;DHT22;11249;52.468;13.776;2023-08-31T11:39:22;14.60;99.90
22167;DHT22;11249;52.468;13.776;2023-08-31T11:41:49;14.90;99.90
22167;DHT22;11249;52.468;13.776;2023-08-31T11:44:16;15.30;99.90
22167;DHT22;11249;52.468;13.776;2023-08-31T11:46:45;15.80;99.90
22167;DHT22;11249;52.468;13.776;2023-08-31T11:49:19;16.40;99.90
22167;DHT22;11249;52.468;13.776;2023-08-31T11:51:48;16.80;99.90
22167;DHT22;11249;52.468;13.776;2023-08-31T11:54:17;17.00;99.90
22167;DHT22;11249;52.468;13.776;2023-08-31T11:56:46;17.10;99.90
22167;DHT22;11249;52.468;13.776;2023-08-31T11:59:18;16.90;99.90
22167;DHT22;11249;52.468;13.776;2023-08-31T12:01:47;16.90;99.90
22167;DHT22;11249;52.468;13.776;2023-08-31T12:04:16;16.90;99.90
22167;DHT22;11249;52.468;13.776;2023-08-31T12:06:46;17.00;99.90
22167;DHT22;11249;52.468;13.776;2023-08-31T12:09:16;17.30;99.90
22167;DHT22;11249;52.468;13.776;2023-08-31T12:11:49;17.30;99.90
22167;DHT22;11249;52.468;13.776;2023-08-31T12:14:24;17.10;99.90
22167;DHT22;11249;52.468;13.776;2023-08-31T12:17:00;16.90;99.90
22167;DHT22;11249;52.468;13.776;2023-08-31T12:19:27;16.90;99.90
22167;DHT22;11249;52.468;13.776;2023-08-31T12:21:55;17.30;99.90
22167;DHT22;11249;52.468;13.776;2023-08-31T12:24:22;17.80;99.90
22167;DHT22;11249;52.468;13.776;2023-08-31T12:26:50;18.20;99.90
22167;DHT22;11249;52.468;13.776;2023-08-31T12:29:17;18.60;99.90
22167;DHT22;11249;52.468;13.776;2023-08-31T12:31:44;18.80;99.90
22167;DHT22;11249;52.468;13.776;2023-08-31T12:34:12;19.00;99.90
22167;DHT22;11249;52.468;13.776;2023-08-31T12:36:38;18.90;99.90
22167;DHT22;11249;52.468;13.776;2023-08-31T12:39:08;18.70;99.90
22167;DHT22;11249;52.468;13.776;2023-08-31T12:41:36;18.50;99.90
22167;DHT22;11249;52.468;13.776;2023-08-31T12:44:03;18.40;99.90
22167;DHT22;11249;52.468;13.776;2023-08-31T12:46:31;18.30;99.90
22167;DHT22;11249;52.468;13.776;2023-08-31T12:49:01;18.30;99.90
22167;DHT22;11249;52.468;13.776;2023-08-31T12:51:32;18.20;99.90
22167;DHT22;11249;52.468;13.776;2023-08-31T12:53:58;18.20;99.90
22167;DHT22;11249;52.468;13.776;2023-08-31T12:56:25;18.00;99.90
22167;DHT22;11249;52.468;13.776;2023-08-31T12:58:53;17.70;99.90
22167;DHT22;11249;52.468;13.776;2023-08-31T13:01:21;16.90;99.90
22167;DHT22;11249;52.468;13.776;2023-08-31T13:03:49;16.50;99.90
22167;DHT22;11249;52.468;13.776;2023-08-31T13:06:17;16.20;99.90
22167;DHT22;11249;52.468;13.776;2023-08-31T13:08:49;16.10;99.90
22167;DHT22;11249;52.468;13.776;2023-08-31T13:11:17;16.00;99.90
22167;DHT22;11249;52.468;13.776;2023-08-31T13:13:50;16.00;99.90
22167;DHT22;11249;52.468;13.776;2023-08-31T13:16:18;15.80;99.90
22167;DHT22;11249;52.468;13.776;2023-08-31T13:18:46;15.90;99.90
22167;DHT22;11249;52.468;13.776;2023-08-31T13:21:13;16.10;99.90
22167;DHT22;11249;52.468;13.776;2023-08-31T13:23:40;16.20;99.90
22167;DHT22;11249;52.468;13.776;2023-08-31T13:26:09;16.20;99.90
22167;DHT22;11249;52.468;13.776;2023-08-31T13:28:36;16.30;99.90
22167;DHT22;11249;52.468;13.776;2023-08-31T13:31:03;16.50;99.90
22167;DHT22;11249;52.468;13.776;2023-08-31T13:33:31;16.90;99.90
22167;DHT22;11249;52.468;13.776;2023-08-31T13:35:58;17.60;99.90
22167;DHT22;11249;52.468;13.776;2023-08-31T13:38:25;18.30;99.90
22167;DHT22;11249;52.468;13.776;2023-08-31T13:40:56;18.70;99.90
22167;DHT22;11249;52.468;13.776;2023-08-31T13:43:26;19.10;99.90
22167;DHT22;11249;52.468;13.776;2023-08-31T13:45:52;19.40;99.90
22167;DHT22;11249;52.468;13.776;2023-08-31T13:48:20;19.30;99.90
22167;DHT22;11249;52.468;13.776;2023-08-31T13:50:49;19.10;99.90
22167;DHT22;11249;52.468;13.776;2023-08-31T13:53:15;18.80;99.90
22167;DHT22;11249;52.468;13.776;2023-08-31T13:55:42;18.40;99.90
22167;DHT22;11249;52.468;13.776;2023-08-31T13:58:09;18.30;99.90
22167;DHT22;11249;52.468;13.776;2023-08-31T14:00:36;18.40;99.90
22167;DHT22;11249;52.468;13.776;2023-08-31T14:03:04;18.40;99.90
22167;DHT22;11249;52.468;13.776;2023-08-31T14:05:31;18.30;99.90
22167;DHT22;11249;52.468;13.776;2023-08-31T14:08:00;18.10;99.90
22167;DHT22;11249;52.468;13.776;2023-08-31T14:10:28;17.90;99.90
22167;DHT22;11249;52.468;13.776;2023-08-31T14:12:54;17.70;99.90
22167;DHT22;11249;52.468;13.776;2023-08-31T14:15:21;17.50;99.90
22167;DHT22;11249;52.468;13.776;2023-08-31T14:17:50;17.30;99.90
22167;DHT22;11249;52.468;13.776;2023-08-31T14:20:18;17.30;99.90
22167;DHT22;11249;52.468;13.776;2023-08-31T14:22:45;17.20;99.90
22167;DHT22;11249;52.468;13.776;2023-08-31T14:25:12;17.10;99.90
22167;DHT22;11249;52.468;13.776;2023-08-31T14:27:39;16.90;99.90
22167;DHT22;11249;52.468;13.776;2023-08-31T14:30:06;16.80;99.90
22167;DHT22;11249;52.468;13.776;2023-08-31T14:32:33;16.60;99.90
22167;DHT22;11249;52.468;13.776;2023-08-31T14:35:00;16.40;99.90
22167;DHT22;11249;52.468;13.776;2023-08-31T14:37:26;16.20;99.90
22167;DHT22;11249;52.468;13.776;2023-08-31T14:39:53;15.90;99.90
22167;DHT22;11249;52.468;13.776;2023-08-31T14:42:20;15.90;99.90
22167;DHT22;11249;52.468;13.776;2023-08-31T14:44:48;15.90;99.90
22167;DHT22;11249;52.468;13.776;2023-08-31T14:47:15;16.10;99.90
22167;DHT22;11249;52.468;13.776;2023-08-31T14:49:42;16.20;99.90
22167;DHT22;11249;52.468;13.776;2023-08-31T14:52:09;16.40;99.90
22167;DHT22;11249;52.468;13.776;2023-08-31T14:54:36;16.60;99.90
22167;DHT22;11249;52.468;13.776;2023-08-31T14:57:03;16.80;99.90
22167;DHT22;11249;52.468;13.776;2023-08-31T14:59:32;17.00;99.90
22167;DHT22;11249;52.468;13.776;2023-08-31T15:01:59;17.10;99.90
22167;DHT22;11249;52.468;13.776;2023-08-31T15:04:32;17.30;99.90
22167;DHT22;11249;52.468;13.776;2023-08-31T15:06:58;17.50;99.90
22167;DHT22;11249;52.468;13.776;2023-08-31T15:09:26;17.70;99.90
22167;DHT22;11249;52.468;13.776;2023-08-31T15:11:53;17.90;99.90
22167;DHT22;11249;52.468;13.776;2023-08-31T15:14:20;18.00;99.90
22167;DHT22;11249;52.468;13.776;2023-08-31T15:16:46;18.40;99.90
22167;DHT22;11249;52.468;13.776;2023-08-31T15:19:13;18.60;99.90
22167;DHT22;11249;52.468;13.776;2023-08-31T15:21:40;18.90;99.90
22167;DHT22;11249;52.468;13.776;2023-08-31T15:24:07;19.20;99.90
22167;DHT22;11249;52.468;13.776;2023-08-31T15:26:33;19.30;99.90
22167;DHT22;11249;52.468;13.776;2023-08-31T15:29:00;19.00;99.90
22167;DHT22;11249;52.468;13.776;2023-08-31T15:31:27;18.90;99.90